Time;durP1;ratioP1;P1;durP2;ratioP2;P2;SDS_P1;SDS_P2;PMS_P1;PMS_P2;Temp;Humidity;BMP_temperature;BMP_pressure;BME280_temperature;BME280_humidity;BME280_pressure;Samples;Min_cycle;Max_cycle;Signal;HPM_P1;HPM_P2
2023/05/20 00:00:06;;;;;;;3.13;1.90;;;17.40;96.70;;;;;;4967757;28;20124;-70
2023/05/20 00:02:35;;;;;;;3.05;1.90;;;17.30;96.70;;;;;;4977807;28;20050;-69
2023/05/20 00:05:04;;;;;;;2.72;2.03;;;17.30;96.70;;;;;;4961486;28;20047;-69
2023/05/20 00:07:32;;;;;;;2.95;2.00;;;17.30;96.70;;;;;;4973410;28;20050;-69
2023/05/20 00:10:01;;;;;;;1.88;1.70;;;17.30;96.70;;;;;;4954073;28;20054;-70
2023/05/20 00:12:29;;;;;;;2.65;1.80;;;17.30;96.70;;;;;;4959802;28;20437;-69
2023/05/20 00:14:58;;;;;;;3.03;1.90;;;17.30;96.70;;;;;;4974334;28;20097;-69
2023/05/20 00:17:27;;;;;;;3.35;1.95;;;17.30;96.70;;;;;;4953414;28;20042;-69
2023/05/20 00:19:55;;;;;;;1.83;1.70;;;17.30;96.70;;;;;;4968883;28;20042;-69
2023/05/20 00:22:23;;;;;;;3.35;2.10;;;17.30;96.70;;;;;;4948226;28;20158;-69
2023/05/20 00:24:51;;;;;;;2.03;1.67;;;17.30;96.70;;;;;;4969343;28;20137;-69
2023/05/20 00:27:21;;;;;;;2.05;1.70;;;17.20;96.70;;;;;;4982242;28;20089;-69
2023/05/20 00:29:49;;;;;;;2.65;1.75;;;17.20;96.70;;;;;;4967926;28;20499;-69
2023/05/20 00:32:17;;;;;;;2.58;1.98;;;17.20;96.70;;;;;;4966015;28;20047;-70
2023/05/20 00:34:56;;;;;;;2.30;1.70;;;17.20;96.70;;;;;;4973453;28;20066;-70
2023/05/20 00:37:24;;;;;;;2.05;1.73;;;17.20;96.70;;;;;;4964857;28;20437;-70
2023/05/20 00:39:52;;;;;;;3.55;2.63;;;17.20;96.70;;;;;;4965386;28;20082;-70
2023/05/20 00:42:23;;;;;;;2.55;1.90;;;17.10;96.70;;;;;;4952558;28;20073;-69
2023/05/20 00:44:52;;;;;;;2.75;1.70;;;17.00;96.70;;;;;;4961416;28;20047;-70
2023/05/20 00:47:23;;;;;;;3.40;1.83;;;17.00;96.70;;;;;;4946009;28;20054;-70
2023/05/20 00:49:52;;;;;;;3.15;1.98;;;17.10;96.70;;;;;;4965540;28;20046;-70
2023/05/20 00:52:21;;;;;;;2.80;1.60;;;17.10;96.70;;;;;;4971227;28;20058;-70
2023/05/20 00:54:50;;;;;;;3.55;2.20;;;17.20;96.70;;;;;;4947487;28;20050;-70
2023/05/20 00:57:19;;;;;;;2.85;1.85;;;17.20;96.70;;;;;;4963319;28;20085;-70
2023/05/20 00:59:49;;;;;;;2.60;1.90;;;17.20;96.70;;;;;;4975675;28;20113;-70
2023/05/20 01:02:17;;;;;;;2.17;1.80;;;17.20;96.70;;;;;;4945495;28;20156;-70
2023/05/20 01:04:46;;;;;;;2.40;2.20;;;17.20;96.70;;;;;;4958059;28;20102;-70
2023/05/20 01:07:16;;;;;;;2.97;2.22;;;17.20;96.70;;;;;;4969941;28;20121;-70
2023/05/20 01:09:45;;;;;;;2.95;2.20;;;17.20;96.70;;;;;;4955728;28;20058;-70
2023/05/20 01:12:23;;;;;;;5.10;2.00;;;17.20;96.70;;;;;;4975917;28;20043;-70
2023/05/20 01:14:59;;;;;;;2.17;1.98;;;17.20;96.70;;;;;;4972943;28;20445;-70
2023/05/20 01:17:31;;;;;;;2.40;1.77;;;17.20;96.70;;;;;;4947083;28;20142;-70
2023/05/20 01:20:03;;;;;;;2.60;1.80;;;17.20;96.70;;;;;;4967522;28;20302;-70
2023/05/20 01:22:32;;;;;;;2.88;2.05;;;17.20;96.70;;;;;;4979335;28;20050;-70
2023/05/20 01:25:02;;;;;;;2.67;2.28;;;17.20;96.70;;;;;;4955179;28;20059;-69
2023/05/20 01:27:30;;;;;;;3.10;2.30;;;17.20;96.70;;;;;;4967585;28;20054;-69
2023/05/20 01:29:59;;;;;;;3.30;2.53;;;17.20;96.70;;;;;;4971005;28;20042;-69
2023/05/20 01:32:31;;;;;;;2.42;2.17;;;17.20;96.70;;;;;;4951224;28;20046;-70
2023/05/20 01:35:00;;;;;;;3.78;1.90;;;17.10;96.70;;;;;;4974418;28;20435;-70
2023/05/20 01:37:30;;;;;;;3.33;2.17;;;17.00;96.70;;;;;;4981936;28;20054;-70
2023/05/20 01:40:00;;;;;;;4.25;1.92;;;17.00;96.70;;;;;;4973786;28;20053;-69
2023/05/20 01:42:28;;;;;;;3.33;1.83;;;17.00;96.70;;;;;;4954550;28;20085;-69
2023/05/20 01:44:59;;;;;;;4.53;2.00;;;17.00;96.70;;;;;;4971726;28;20041;-70
2023/05/20 01:47:27;;;;;;;2.60;1.88;;;17.00;96.70;;;;;;4953080;28;20078;-70
2023/05/20 01:49:55;;;;;;;2.22;2.00;;;17.00;96.70;;;;;;4965565;28;20108;-70
2023/05/20 01:52:23;;;;;;;1.80;1.60;;;17.00;96.70;;;;;;4970927;28;20492;-69
2023/05/20 01:54:52;;;;;;;3.47;2.00;;;17.00;96.70;;;;;;4964382;28;20035;-70
2023/05/20 01:57:23;;;;;;;2.72;1.92;;;17.00;96.70;;;;;;4964243;28;20049;-70
2023/05/20 01:59:52;;;;;;;3.13;1.83;;;17.00;96.70;;;;;;4962196;28;20460;-70
2023/05/20 02:02:21;;;;;;;3.28;1.60;;;17.00;96.70;;;;;;4956762;28;20051;-70
2023/05/20 02:04:53;;;;;;;3.13;1.67;;;17.00;96.70;;;;;;4968446;28;20049;-70
2023/05/20 02:07:21;;;;;;;4.07;1.88;;;17.00;96.70;;;;;;4962839;28;20558;-70
2023/05/20 02:09:51;;;;;;;3.67;1.83;;;17.00;96.70;;;;;;4947715;28;20074;-70
2023/05/20 02:12:22;;;;;;;1.90;1.70;;;17.00;96.70;;;;;;4965737;28;20055;-70
2023/05/20 02:14:51;;;;;;;3.45;1.60;;;16.90;96.70;;;;;;4982226;28;20577;-70
2023/05/20 02:17:19;;;;;;;2.67;1.73;;;17.00;96.70;;;;;;4959882;28;20363;-70
2023/05/20 02:19:48;;;;;;;2.53;1.90;;;16.90;96.70;;;;;;4972575;28;20090;-69
2023/05/20 02:22:16;;;;;;;3.17;1.50;;;16.90;96.70;;;;;;4968012;28;20058;-70
2023/05/20 02:24:44;;;;;;;1.90;1.70;;;16.90;96.70;;;;;;4962827;28;20468;-70
2023/05/20 02:27:12;;;;;;;3.83;2.13;;;16.90;96.70;;;;;;4982497;28;20516;-69
2023/05/20 02:29:43;;;;;;;3.63;2.38;;;16.90;96.70;;;;;;4956044;28;20055;-69
2023/05/20 02:32:11;;;;;;;2.67;1.88;;;16.90;96.70;;;;;;4968738;28;20058;-70
2023/05/20 02:34:39;;;;;;;2.67;1.80;;;16.90;96.70;;;;;;4963887;28;20050;-69
2023/05/20 02:37:07;;;;;;;2.08;1.60;;;16.90;96.70;;;;;;4960177;28;20162;-70
2023/05/20 02:39:37;;;;;;;2.42;1.73;;;16.90;96.70;;;;;;4978803;28;20114;-70
2023/05/20 02:42:06;;;;;;;2.22;1.83;;;16.90;96.70;;;;;;4974132;28;20047;-70
2023/05/20 02:44:33;;;;;;;2.08;1.73;;;16.90;96.70;;;;;;4959282;28;20045;-70
2023/05/20 02:47:03;;;;;;;2.05;1.67;;;16.90;96.70;;;;;;4975108;28;20051;-70
2023/05/20 02:49:31;;;;;;;2.95;2.22;;;17.00;96.70;;;;;;4975744;28;20045;-70
2023/05/20 02:52:01;;;;;;;2.70;2.10;;;16.90;96.70;;;;;;4953116;28;20145;-69
2023/05/20 02:54:29;;;;;;;3.03;2.25;;;16.90;96.70;;;;;;4954365;28;20076;-69
2023/05/20 02:56:57;;;;;;;2.78;2.08;;;16.90;96.70;;;;;;4944085;28;20070;-70
2023/05/20 02:59:26;;;;;;;2.38;1.85;;;16.90;96.70;;;;;;4951712;28;20061;-70
2023/05/20 03:01:54;;;;;;;2.70;2.10;;;16.90;96.70;;;;;;4964426;28;20452;-69
2023/05/20 03:04:25;;;;;;;3.05;2.05;;;16.90;96.70;;;;;;4978867;28;20481;-69
2023/05/20 03:07:08;;;;;;;2.25;2.00;;;16.90;96.70;;;;;;4965470;28;20046;-69
2023/05/20 03:09:53;;;;;;;2.67;1.88;;;16.90;96.70;;;;;;4942170;28;20046;-69
2023/05/20 03:12:39;;;;;;;1.98;1.67;;;16.90;96.70;;;;;;4978385;28;20041;-70
2023/05/20 03:15:09;;;;;;;3.47;2.20;;;16.90;96.70;;;;;;4956083;28;20098;-69
2023/05/20 03:17:37;;;;;;;2.67;2.05;;;16.90;96.70;;;;;;4960422;28;20130;-70
2023/05/20 03:20:11;;;;;;;2.38;2.05;;;16.90;96.70;;;;;;4966912;28;20124;-69
2023/05/20 03:22:40;;;;;;;5.90;2.40;;;16.90;96.70;;;;;;4945892;28;20405;-69
2023/05/20 03:25:09;;;;;;;2.35;2.05;;;16.80;96.70;;;;;;4958793;28;20071;-70
2023/05/20 03:27:37;;;;;;;3.58;2.13;;;16.80;96.70;;;;;;4979446;28;20061;-70
2023/05/20 03:30:08;;;;;;;2.17;1.83;;;16.80;96.70;;;;;;4964727;28;20057;-70
2023/05/20 03:32:36;;;;;;;3.95;2.17;;;16.80;96.70;;;;;;4966408;28;20097;-69
2023/05/20 03:35:08;;;;;;;2.97;1.88;;;16.80;96.70;;;;;;4972276;28;20433;-70
2023/05/20 03:37:39;;;;;;;3.53;2.40;;;16.80;96.70;;;;;;4967794;28;20478;-70
2023/05/20 03:40:09;;;;;;;3.83;2.13;;;16.90;96.70;;;;;;4931486;28;20505;-70
2023/05/20 03:42:38;;;;;;;3.30;2.03;;;16.90;96.70;;;;;;4948913;28;20173;-70
2023/05/20 03:45:08;;;;;;;2.75;2.15;;;16.90;96.70;;;;;;4943126;28;20713;-70
2023/05/20 03:47:43;;;;;;;3.05;2.65;;;16.90;96.70;;;;;;4954452;28;20070;-70
2023/05/20 03:50:13;;;;;;;3.35;2.40;;;16.90;96.70;;;;;;4944138;28;20057;-70
2023/05/20 03:52:41;;;;;;;2.53;2.20;;;16.90;96.70;;;;;;4970877;28;20054;-69
2023/05/20 03:55:10;;;;;;;3.03;2.10;;;16.90;96.70;;;;;;4952251;28;20049;-69
2023/05/20 03:57:38;;;;;;;2.20;2.00;;;16.90;96.70;;;;;;4959240;28;20072;-69
2023/05/20 04:00:13;;;;;;;3.15;2.63;;;16.90;96.70;;;;;;4942563;28;20533;-70
2023/05/20 04:02:44;;;;;;;4.97;2.00;;;16.90;96.70;;;;;;4976842;28;20051;-70
2023/05/20 04:05:18;;;;;;;3.05;2.30;;;16.90;96.70;;;;;;4948809;28;20500;-69
2023/05/20 04:07:48;;;;;;;3.33;2.45;;;16.90;96.70;;;;;;4965242;28;20066;-70
2023/05/20 04:10:19;;;;;;;2.78;2.20;;;16.90;96.70;;;;;;4977062;28;20397;-69
2023/05/20 04:12:48;;;;;;;2.70;2.42;;;16.90;96.70;;;;;;4946592;28;20047;-69
2023/05/20 04:15:18;;;;;;;2.50;2.13;;;16.90;96.70;;;;;;4965005;28;20052;-70
2023/05/20 04:17:53;;;;;;;2.65;2.22;;;16.90;96.70;;;;;;4953932;28;20109;-70
2023/05/20 04:20:23;;;;;;;2.83;2.08;;;17.00;96.70;;;;;;4978356;28;20408;-70
2023/05/20 04:22:55;;;;;;;3.20;2.00;;;17.00;96.70;;;;;;4962461;28;20046;-70
2023/05/20 04:25:24;;;;;;;2.58;1.98;;;17.00;96.70;;;;;;4982712;28;20751;-70
2023/05/20 04:27:54;;;;;;;3.08;2.00;;;17.00;96.70;;;;;;4965795;28;20493;-70
2023/05/20 04:30:22;;;;;;;2.83;2.03;;;17.00;96.70;;;;;;4974229;28;20046;-69
2023/05/20 04:32:51;;;;;;;6.25;2.40;;;17.00;96.70;;;;;;4959892;28;20121;-69
2023/05/20 04:35:19;;;;;;;2.20;1.95;;;17.00;96.70;;;;;;4977350;28;20512;-69
2023/05/20 04:37:52;;;;;;;2.38;2.00;;;17.00;96.70;;;;;;4974909;28;20059;-70
2023/05/20 04:40:22;;;;;;;3.08;2.42;;;17.10;96.70;;;;;;4963055;28;20727;-70
2023/05/20 04:42:52;;;;;;;2.28;2.08;;;17.10;96.70;;;;;;4972398;28;20359;-70
2023/05/20 04:45:22;;;;;;;4.07;1.95;;;17.10;96.70;;;;;;4959341;28;20054;-70
2023/05/20 04:47:52;;;;;;;2.38;2.05;;;17.10;96.70;;;;;;4950351;28;20052;-70
2023/05/20 04:50:20;;;;;;;2.30;2.10;;;17.10;96.70;;;;;;4974365;28;20050;-70
2023/05/20 04:52:50;;;;;;;2.47;1.88;;;17.10;96.70;;;;;;4977697;28;20044;-70
2023/05/20 04:55:20;;;;;;;2.30;2.00;;;17.10;96.70;;;;;;4960220;28;20050;-69
2023/05/20 04:57:48;;;;;;;3.00;2.33;;;17.00;96.70;;;;;;4950164;28;20058;-70
2023/05/20 05:00:17;;;;;;;2.25;2.05;;;17.00;96.70;;;;;;4976727;28;20057;-70
2023/05/20 05:02:46;;;;;;;4.57;1.80;;;17.10;96.70;;;;;;4955225;28;20046;-70
2023/05/20 05:05:16;;;;;;;3.67;1.75;;;17.00;96.70;;;;;;4957933;28;20068;-70
2023/05/20 05:07:44;;;;;;;1.95;1.75;;;17.00;96.70;;;;;;4976743;28;20051;-70
2023/05/20 05:10:14;;;;;;;2.28;2.05;;;17.10;96.70;;;;;;4972135;28;20050;-70
2023/05/20 05:12:43;;;;;;;2.58;1.83;;;17.10;96.70;;;;;;4952160;28;20054;-70
2023/05/20 05:15:11;;;;;;;4.10;1.90;;;17.10;96.70;;;;;;4967951;28;20509;-70
2023/05/20 05:17:42;;;;;;;2.28;1.42;;;17.00;96.70;;;;;;4970986;28;20416;-69
2023/05/20 05:20:10;;;;;;;2.40;1.73;;;17.00;96.70;;;;;;4979404;28;20076;-69
2023/05/20 05:22:40;;;;;;;2.58;1.52;;;17.10;96.70;;;;;;4981797;28;20061;-70
2023/05/20 05:25:10;;;;;;;2.95;1.90;;;17.10;96.70;;;;;;4978974;28;20644;-70
2023/05/20 05:27:40;;;;;;;1.52;1.25;;;17.10;96.70;;;;;;4981357;28;20054;-70
2023/05/20 05:30:09;;;;;;;1.83;1.25;;;17.10;96.70;;;;;;4976770;28;20669;-72
2023/05/20 05:32:38;;;;;;;1.35;0.98;;;17.10;96.70;;;;;;4962079;28;20504;-69
2023/05/20 05:35:07;;;;;;;1.40;1.20;;;17.10;96.70;;;;;;4948405;28;20051;-70
2023/05/20 05:37:35;;;;;;;1.95;1.48;;;17.10;96.70;;;;;;4953082;28;20126;-70
2023/05/20 05:40:07;;;;;;;2.50;1.30;;;17.10;96.70;;;;;;4947676;28;20073;-70
2023/05/20 05:42:35;;;;;;;2.67;1.50;;;17.10;96.70;;;;;;4945120;28;20050;-70
2023/05/20 05:45:08;;;;;;;2.08;1.17;;;17.10;96.70;;;;;;4954449;28;20077;-70
2023/05/20 05:47:36;;;;;;;1.85;1.33;;;17.10;96.70;;;;;;4973777;28;20050;-70
2023/05/20 05:50:05;;;;;;;2.03;1.60;;;17.10;96.70;;;;;;4959176;28;20092;-70
2023/05/20 05:52:35;;;;;;;1.10;1.00;;;17.20;96.70;;;;;;4945695;28;20090;-71
2023/05/20 05:55:06;;;;;;;3.78;1.23;;;17.20;96.70;;;;;;4953252;28;20074;-71
2023/05/20 05:57:35;;;;;;;2.90;1.63;;;17.20;96.70;;;;;;4946456;28;20587;-71
2023/05/20 06:00:06;;;;;;;2.65;1.15;;;17.10;96.70;;;;;;4973316;28;20054;-70
2023/05/20 06:02:44;;;;;;;1.85;1.45;;;17.10;96.70;;;;;;4976307;28;20046;-70
2023/05/20 06:05:25;;;;;;;2.10;1.08;;;17.10;96.70;;;;;;4945120;28;20085;-70
2023/05/20 06:07:56;;;;;;;1.77;1.17;;;17.10;96.70;;;;;;4948868;28;20070;-72
2023/05/20 06:10:25;;;;;;;2.28;1.20;;;17.10;96.70;;;;;;4978289;28;20039;-71
2023/05/20 06:12:54;;;;;;;1.98;1.10;;;17.10;96.70;;;;;;4976695;28;20463;-71
2023/05/20 06:15:25;;;;;;;1.58;1.30;;;17.10;96.70;;;;;;4974971;28;20039;-71
2023/05/20 06:17:54;;;;;;;1.63;1.20;;;17.10;96.70;;;;;;4980307;28;20125;-70
2023/05/20 06:20:24;;;;;;;1.33;1.10;;;17.10;96.70;;;;;;4976968;28;21032;-70
2023/05/20 06:22:52;;;;;;;1.40;1.30;;;17.10;96.70;;;;;;4965289;28;20512;-71
2023/05/20 06:25:21;;;;;;;1.40;1.30;;;17.10;96.70;;;;;;4955825;28;20051;-71
2023/05/20 06:27:50;;;;;;;2.08;1.25;;;17.10;96.70;;;;;;4946939;28;20838;-71
2023/05/20 06:30:19;;;;;;;1.25;1.13;;;17.10;96.70;;;;;;4969773;28;20069;-71
2023/05/20 06:32:50;;;;;;;1.73;1.25;;;17.10;96.70;;;;;;4955023;28;20515;-71
2023/05/20 06:35:18;;;;;;;1.75;1.50;;;17.10;96.70;;;;;;4941716;28;20056;-71
2023/05/20 06:37:46;;;;;;;1.88;1.45;;;17.20;96.70;;;;;;4949570;28;20043;-71
2023/05/20 06:40:16;;;;;;;1.35;1.25;;;17.20;96.70;;;;;;4947578;28;20050;-70
2023/05/20 06:42:45;;;;;;;2.25;1.65;;;17.20;96.70;;;;;;4954485;28;20055;-71
2023/05/20 06:45:13;;;;;;;1.50;1.40;;;17.20;96.70;;;;;;4940733;28;20554;-71
2023/05/20 06:47:49;;;;;;;1.58;1.40;;;17.20;96.70;;;;;;4955992;28;20047;-71
2023/05/20 06:50:19;;;;;;;1.77;1.40;;;17.30;96.70;;;;;;4946784;28;20055;-70
2023/05/20 06:52:48;;;;;;;2.45;1.52;;;17.30;96.70;;;;;;4935474;28;20576;-71
2023/05/20 06:55:17;;;;;;;2.00;1.50;;;17.30;96.70;;;;;;4951141;28;20042;-71
2023/05/20 06:57:45;;;;;;;1.58;1.35;;;17.30;96.70;;;;;;4961989;28;20433;-70
2023/05/20 07:00:16;;;;;;;2.03;1.48;;;17.30;96.70;;;;;;4958713;28;20564;-71
2023/05/20 07:02:45;;;;;;;2.17;1.70;;;17.30;96.70;;;;;;4960787;28;20047;-71
2023/05/20 07:05:16;;;;;;;3.22;1.45;;;17.30;96.70;;;;;;4947609;28;20121;-74
2023/05/20 07:07:45;;;;;;;2.78;1.55;;;17.30;96.70;;;;;;4938356;28;20501;-70
2023/05/20 07:10:14;;;;;;;2.25;1.50;;;17.40;96.70;;;;;;4967313;28;20054;-71
2023/05/20 07:12:43;;;;;;;4.53;4.07;;;17.40;96.70;;;;;;4980112;28;20054;-71
2023/05/20 07:15:11;;;;;;;2.50;1.95;;;17.50;96.70;;;;;;4961008;28;20042;-70
2023/05/20 07:17:40;;;;;;;2.35;1.58;;;17.50;96.70;;;;;;4948982;28;20500;-70
2023/05/20 07:20:09;;;;;;;2.25;1.70;;;17.60;96.70;;;;;;4945440;28;20590;-71
2023/05/20 07:22:39;;;;;;;2.55;1.30;;;17.50;96.70;;;;;;4964813;28;20041;-71
2023/05/20 07:25:14;;;;;;;2.00;1.60;;;17.60;96.70;;;;;;4951495;28;20416;-71
2023/05/20 07:27:43;;;;;;;3.00;1.65;;;17.60;96.70;;;;;;4958747;28;20112;-71
2023/05/20 07:30:11;;;;;;;2.90;1.80;;;17.60;96.70;;;;;;4953819;28;20070;-71
2023/05/20 07:32:42;;;;;;;1.38;1.20;;;17.60;96.70;;;;;;4956823;28;20047;-71
2023/05/20 07:35:11;;;;;;;2.10;1.75;;;17.60;96.70;;;;;;4977426;28;20058;-70
2023/05/20 07:37:41;;;;;;;1.92;1.30;;;17.70;96.70;;;;;;4977170;28;20441;-71
2023/05/20 07:40:10;;;;;;;2.35;1.83;;;17.70;96.70;;;;;;4940396;28;20053;-72
2023/05/20 07:42:38;;;;;;;1.90;1.48;;;17.80;96.70;;;;;;4954471;28;20073;-72
2023/05/20 07:45:08;;;;;;;2.63;1.48;;;17.80;96.70;;;;;;4964171;28;20050;-71
2023/05/20 07:47:37;;;;;;;2.08;1.50;;;17.90;96.70;;;;;;4957173;28;20042;-70
2023/05/20 07:50:06;;;;;;;2.05;1.45;;;17.90;96.70;;;;;;4940541;28;20046;-71
2023/05/20 07:52:36;;;;;;;2.13;1.20;;;17.90;96.70;;;;;;4959662;28;20582;-71
2023/05/20 07:55:27;;;;;;;2.28;1.63;;;17.90;96.70;;;;;;4970752;28;20049;-71
2023/05/20 07:57:56;;;;;;;9.20;8.32;;;17.90;96.70;;;;;;4966276;28;20049;-72
2023/05/20 08:00:26;;;;;;;4.43;3.03;;;18.00;96.70;;;;;;4964099;28;20077;-71
2023/05/20 08:02:54;;;;;;;2.45;2.25;;;18.00;96.70;;;;;;4969236;28;20125;-71
2023/05/20 08:05:31;;;;;;;3.45;2.15;;;18.00;96.70;;;;;;4948028;28;20075;-70
2023/05/20 08:08:00;;;;;;;3.03;2.08;;;18.10;96.70;;;;;;4937104;28;20085;-70
2023/05/20 08:10:38;;;;;;;2.55;2.05;;;18.20;96.70;;;;;;4951070;28;20512;-71
2023/05/20 08:13:07;;;;;;;3.13;2.10;;;18.30;96.70;;;;;;4963596;28;20453;-70
2023/05/20 08:15:36;;;;;;;3.53;2.00;;;18.40;96.70;;;;;;4946928;28;20043;-70
2023/05/20 08:18:05;;;;;;;2.40;2.20;;;18.50;96.70;;;;;;4967606;28;20046;-71
2023/05/20 08:20:34;;;;;;;2.50;2.20;;;18.60;96.70;;;;;;4951326;28;20047;-70
2023/05/20 08:23:03;;;;;;;2.80;2.30;;;18.70;96.70;;;;;;4942929;28;20113;-70
2023/05/20 08:25:32;;;;;;;2.13;1.90;;;18.70;96.70;;;;;;4964790;28;20097;-71
2023/05/20 08:28:04;;;;;;;2.50;2.20;;;18.80;96.70;;;;;;4950903;28;20059;-70
2023/05/20 08:30:36;;;;;;;3.38;2.58;;;18.90;96.70;;;;;;4967964;28;20057;-71
2023/05/20 08:33:06;;;;;;;5.43;2.85;;;18.90;96.70;;;;;;4947183;28;20479;-71
2023/05/20 08:35:38;;;;;;;5.07;2.17;;;19.00;96.70;;;;;;4962661;28;20039;-71
2023/05/20 08:38:07;;;;;;;3.38;3.08;;;19.00;96.70;;;;;;4966182;28;20504;-71
2023/05/20 08:40:39;;;;;;;5.22;2.60;;;19.10;96.70;;;;;;4948077;28;20039;-70
2023/05/20 08:43:10;;;;;;;3.00;2.70;;;19.10;96.70;;;;;;4962362;28;20062;-70
2023/05/20 08:45:39;;;;;;;3.35;3.05;;;19.10;96.70;;;;;;4964851;28;20039;-71
2023/05/20 08:48:13;;;;;;;3.22;2.92;;;19.10;96.70;;;;;;4955038;28;20138;-71
2023/05/20 08:50:43;;;;;;;3.40;2.97;;;19.10;96.70;;;;;;4950407;28;20046;-71
2023/05/20 08:53:12;;;;;;;3.28;2.88;;;19.20;96.70;;;;;;4968629;28;20057;-71
2023/05/20 08:55:45;;;;;;;7.32;3.70;;;19.30;96.70;;;;;;4967876;28;20041;-71
2023/05/20 08:58:18;;;;;;;4.07;3.67;;;19.40;96.70;;;;;;4950105;28;20057;-72
2023/05/20 09:00:46;;;;;;;4.03;3.35;;;19.50;96.70;;;;;;4969156;28;20070;-72
2023/05/20 09:03:15;;;;;;;4.38;3.97;;;19.60;96.70;;;;;;4967043;28;20062;-70
2023/05/20 09:05:45;;;;;;;5.80;4.00;;;19.80;96.70;;;;;;4964362;28;20055;-71
2023/05/20 09:08:13;;;;;;;4.85;3.88;;;19.90;96.70;;;;;;4965260;28;20397;-71
2023/05/20 09:10:42;;;;;;;6.70;4.05;;;20.10;96.70;;;;;;4969395;28;20420;-71
2023/05/20 09:13:11;;;;;;;6.60;5.85;;;20.20;96.70;;;;;;4978004;28;20042;-71
2023/05/20 09:15:41;;;;;;;5.20;4.70;;;20.40;96.70;;;;;;4966193;28;20046;-71
2023/05/20 09:18:10;;;;;;;5.05;4.03;;;20.50;96.70;;;;;;4971815;28;20102;-72
2023/05/20 09:20:40;;;;;;;4.70;4.25;;;20.60;96.70;;;;;;4962740;28;20142;-72
2023/05/20 09:23:09;;;;;;;5.10;4.50;;;20.60;96.70;;;;;;4966195;28;20055;-73
2023/05/20 09:25:38;;;;;;;4.30;3.90;;;20.60;96.70;;;;;;4957331;28;20595;-73
2023/05/20 09:28:07;;;;;;;5.15;4.18;;;20.60;96.70;;;;;;4954360;28;20109;-72
2023/05/20 09:30:36;;;;;;;4.28;3.83;;;20.70;96.70;;;;;;4955085;28;20043;-72
2023/05/20 09:33:08;;;;;;;6.40;5.80;;;20.60;96.70;;;;;;4978376;28;20046;-72
2023/05/20 09:35:37;;;;;;;5.97;4.75;;;20.60;96.70;;;;;;4965192;28;20089;-72
2023/05/20 09:38:08;;;;;;;5.10;4.40;;;20.40;96.70;;;;;;4957286;28;20394;-72
2023/05/20 09:40:39;;;;;;;5.28;4.25;;;20.30;96.70;;;;;;4971144;28;20598;-73
2023/05/20 09:43:10;;;;;;;5.57;4.07;;;20.30;96.70;;;;;;4956524;28;20058;-72
2023/05/20 09:45:39;;;;;;;4.20;3.80;;;20.30;96.70;;;;;;4963614;28;20047;-73
2023/05/20 09:48:11;;;;;;;4.15;3.72;;;20.40;96.70;;;;;;4950062;28;20440;-77
2023/05/20 09:50:41;;;;;;;5.10;4.50;;;20.40;96.70;;;;;;4946217;28;20416;-73
2023/05/20 09:53:11;;;;;;;5.93;4.20;;;20.60;96.70;;;;;;4969722;28;20083;-72
2023/05/20 09:55:41;;;;;;;6.03;3.83;;;20.80;96.70;;;;;;4965449;28;20047;-73
2023/05/20 09:58:13;;;;;;;5.30;4.47;;;20.90;96.70;;;;;;4959761;28;20134;-73
2023/05/20 10:00:44;;;;;;;4.85;4.38;;;21.10;96.70;;;;;;4964209;28;20046;-73
2023/05/20 10:03:14;;;;;;;4.35;3.95;;;21.10;96.70;;;;;;4970844;28;20048;-73
2023/05/20 10:05:47;;;;;;;4.82;4.43;;;21.20;96.70;;;;;;4974130;28;20129;-73
2023/05/20 10:08:33;;;;;;;4.53;3.97;;;21.40;96.70;;;;;;4980498;28;20426;-73
2023/05/20 10:11:11;;;;;;;4.55;4.07;;;21.40;96.70;;;;;;4954425;28;20500;-72
2023/05/20 10:14:04;;;;;;;4.95;3.70;;;21.30;96.70;;;;;;4966966;28;20055;-73
2023/05/20 10:16:43;;;;;;;4.78;4.05;;;21.40;96.70;;;;;;4971915;28;20053;-73
2023/05/20 10:19:26;;;;;;;8.10;7.25;;;21.50;96.70;;;;;;4964403;28;20053;-72
2023/05/20 10:21:57;;;;;;;5.10;4.53;;;21.40;96.70;;;;;;4943620;28;20051;-72
2023/05/20 10:24:31;;;;;;;4.93;4.43;;;21.50;96.70;;;;;;4957526;28;20418;-73
2023/05/20 10:27:02;;;;;;;4.85;4.35;;;21.40;96.70;;;;;;4965839;28;20078;-72
2023/05/20 10:29:42;;;;;;;7.53;5.05;;;21.50;96.70;;;;;;4974305;28;20476;-73
2023/05/20 10:32:11;;;;;;;5.13;4.20;;;21.50;96.70;;;;;;4950628;28;20046;-72
2023/05/20 10:34:49;;;;;;;7.60;5.00;;;21.60;96.70;;;;;;4967712;28;20505;-72
2023/05/20 10:37:25;;;;;;;7.32;4.72;;;21.50;96.70;;;;;;4965921;28;20047;-72
2023/05/20 10:40:05;;;;;;;6.43;5.07;;;21.50;96.70;;;;;;4945531;28;20589;-72
2023/05/20 10:42:34;;;;;;;7.40;5.15;;;21.60;96.70;;;;;;4977216;28;20050;-72
2023/05/20 10:45:04;;;;;;;5.00;4.60;;;21.50;96.70;;;;;;4975522;28;20547;-71
2023/05/20 10:47:33;;;;;;;5.47;4.97;;;21.50;96.70;;;;;;4979463;28;20038;-71
2023/05/20 10:50:04;;;;;;;4.78;4.32;;;21.50;96.70;;;;;;4956693;28;20575;-71
2023/05/20 10:52:35;;;;;;;5.53;4.95;;;21.50;96.70;;;;;;4968647;28;20053;-71
2023/05/20 10:55:06;;;;;;;5.38;4.07;;;21.60;96.70;;;;;;4968365;28;20045;-71
2023/05/20 10:57:35;;;;;;;5.18;4.68;;;21.60;96.70;;;;;;4967582;28;20440;-73
2023/05/20 11:00:05;;;;;;;5.43;4.47;;;21.60;96.70;;;;;;4972251;28;20043;-72
2023/05/20 11:02:35;;;;;;;5.00;4.22;;;21.60;96.70;;;;;;4970694;28;20042;-73
2023/05/20 11:05:10;;;;;;;5.38;4.38;;;21.50;96.70;;;;;;4970904;28;20105;-72
2023/05/20 11:07:39;;;;;;;4.75;4.15;;;21.30;96.70;;;;;;4966992;28;20097;-72
2023/05/20 11:10:09;;;;;;;4.25;3.85;;;21.10;96.70;;;;;;4969800;28;20581;-73
2023/05/20 11:12:38;;;;;;;4.45;4.05;;;21.00;96.70;;;;;;4947727;28;20089;-72
2023/05/20 11:15:10;;;;;;;3.80;3.35;;;20.80;96.70;;;;;;4965335;28;20235;-72
2023/05/20 11:17:52;;;;;;;17.83;15.18;;;20.70;96.70;;;;;;4970476;28;20047;-72
2023/05/20 11:20:23;;;;;;;6.45;4.93;;;20.60;96.70;;;;;;4971075;28;20063;-72
2023/05/20 11:22:52;;;;;;;5.10;4.57;;;20.50;96.70;;;;;;4978531;28;20407;-74
2023/05/20 11:25:24;;;;;;;4.32;3.90;;;20.50;96.70;;;;;;4950881;28;20042;-71
2023/05/20 11:27:53;;;;;;;6.85;4.30;;;20.50;96.70;;;;;;4965267;28;20043;-71
2023/05/20 11:30:22;;;;;;;5.00;4.35;;;20.60;96.70;;;;;;4970993;28;20049;-71
2023/05/20 11:32:58;;;;;;;6.00;4.20;;;20.70;96.70;;;;;;4969028;28;20129;-71
2023/05/20 11:35:32;;;;;;;4.93;4.40;;;20.80;96.70;;;;;;4958728;28;20054;-71
2023/05/20 11:38:03;;;;;;;5.90;4.82;;;20.90;96.70;;;;;;4981165;28;20050;-71
2023/05/20 11:40:32;;;;;;;5.25;4.57;;;21.10;96.70;;;;;;4974700;28;20050;-71
2023/05/20 11:43:16;;;;;;;7.00;4.47;;;21.30;96.70;;;;;;4979629;28;20086;-71
2023/05/20 11:45:46;;;;;;;5.07;4.57;;;21.40;96.70;;;;;;4967121;28;20052;-70
2023/05/20 11:48:15;;;;;;;9.00;5.05;;;21.50;96.70;;;;;;4976834;28;20050;-71
2023/05/20 11:50:47;;;;;;;8.10;5.30;;;21.60;96.70;;;;;;4968928;28;20046;-71
2023/05/20 11:53:18;;;;;;;7.22;5.25;;;21.70;96.70;;;;;;4975615;28;20050;-71
2023/05/20 11:55:50;;;;;;;8.07;5.97;;;21.70;96.70;;;;;;4978388;28;20210;-71
2023/05/20 11:58:24;;;;;;;8.65;5.22;;;21.50;96.70;;;;;;4944522;28;20388;-72
2023/05/20 12:00:54;;;;;;;7.85;5.80;;;21.40;96.70;;;;;;4913322;29;20051;-71
2023/05/20 12:03:40;;;;;;;6.28;5.68;;;21.30;96.70;;;;;;4921598;29;20680;-70
2023/05/20 12:06:12;;;;;;;7.65;6.18;;;21.30;96.70;;;;;;4931305;29;20048;-71
2023/05/20 12:08:41;;;;;;;9.07;5.93;;;21.10;96.70;;;;;;4923243;29;20047;-70
2023/05/20 12:11:09;;;;;;;7.85;5.95;;;21.00;96.70;;;;;;4939706;29;20061;-71
2023/05/20 12:13:38;;;;;;;7.13;6.18;;;20.90;96.70;;;;;;4934731;29;20055;-71
2023/05/20 12:16:06;;;;;;;7.00;6.30;;;20.70;96.70;;;;;;4922763;29;20043;-71
2023/05/20 12:18:35;;;;;;;7.68;6.70;;;20.70;96.70;;;;;;4922733;29;20051;-70
2023/05/20 12:21:03;;;;;;;6.85;6.03;;;20.70;96.70;;;;;;4907018;29;20047;-70
2023/05/20 12:23:33;;;;;;;8.40;6.50;;;20.70;96.70;;;;;;4928363;29;20055;-70
2023/05/20 12:26:02;;;;;;;8.52;6.18;;;20.70;96.70;;;;;;4923715;29;20549;-70
2023/05/20 12:28:30;;;;;;;7.03;6.25;;;20.90;96.70;;;;;;4924179;29;20595;-71
2023/05/20 12:30:59;;;;;;;7.10;5.88;;;21.10;96.70;;;;;;4924938;29;20154;-71
2023/05/20 12:33:28;;;;;;;6.90;6.20;;;21.30;96.70;;;;;;4930620;29;20788;-71
2023/05/20 12:35:56;;;;;;;9.32;6.28;;;21.50;96.70;;;;;;4924143;29;20437;-72
2023/05/20 12:38:25;;;;;;;8.10;6.22;;;21.40;96.70;;;;;;4941686;28;20065;-71
2023/05/20 12:40:54;;;;;;;10.85;7.82;;;21.40;96.70;;;;;;4981111;28;20046;-72
2023/05/20 12:43:23;;;;;;;10.40;6.55;;;21.50;96.70;;;;;;4950731;28;20051;-71
2023/05/20 12:45:51;;;;;;;7.57;6.68;;;21.50;96.70;;;;;;4981527;28;20152;-72
2023/05/20 12:48:19;;;;;;;6.30;5.30;;;21.40;96.70;;;;;;4973031;28;20046;-71
2023/05/20 12:50:48;;;;;;;6.88;5.70;;;21.30;96.70;;;;;;4966090;28;20213;-72
2023/05/20 12:53:16;;;;;;;6.20;5.15;;;21.20;96.70;;;;;;4976412;28;20046;-71
2023/05/20 12:55:45;;;;;;;7.03;5.55;;;21.20;96.70;;;;;;4970996;28;20042;-72
2023/05/20 12:58:14;;;;;;;7.15;5.65;;;21.10;96.70;;;;;;4965531;28;20046;-71
2023/05/20 13:00:43;;;;;;;6.55;5.55;;;21.00;96.70;;;;;;4956247;28;20066;-71